createdAt,value
2023-01-30T00:01:00.918Z,77.73
2023-01-30T00:03:03.898Z,77.34
2023-01-30T00:05:07.538Z,78.12
2023-01-30T00:07:11.918Z,76.84
2023-01-30T00:09:15.697Z,77.16
2023-01-30T00:11:22.728Z,76.98
2023-01-30T00:13:25.997Z,77.92
2023-01-30T00:15:28.912Z,77.11
2023-01-30T00:17:31.829Z,76.20
2023-01-30T00:19:34.758Z,76.79
2023-01-30T00:21:37.637Z,77.13
2023-01-30T00:23:42.129Z,77.44
2023-01-30T00:25:46.857Z,78.23
2023-01-30T00:27:49.867Z,77.85
2023-01-30T00:30:02.598Z,77.71
2023-01-30T00:32:06.987Z,76.75
2023-01-30T00:34:10.277Z,76.94
2023-01-30T00:36:13.201Z,77.88
2023-01-30T00:38:16.867Z,77.44
2023-01-30T00:40:21.286Z,78.20
2023-01-30T00:42:42.989Z,77.52
2023-01-30T00:45:04.558Z,76.94
2023-01-30T00:47:09.196Z,77.19
2023-01-30T00:49:12.886Z,76.31
2023-01-30T00:51:16.129Z,76.52
2023-01-30T00:53:19.068Z,76.54
2023-01-30T00:55:23.459Z,77.33
2023-01-30T00:57:26.349Z,77.76
2023-01-30T00:59:29.218Z,76.40
2023-01-30T01:01:32.125Z,76.77
2023-01-30T01:03:35.164Z,76.82
2023-01-30T01:05:38.038Z,78.05
2023-01-30T01:07:40.963Z,77.18
2023-01-30T01:09:44.612Z,78.40
2023-01-30T01:11:49.040Z,78.05
2023-01-30T01:13:53.879Z,77.39
2023-01-30T01:15:57.073Z,78.62
2023-01-30T01:18:00.031Z,78.48
2023-01-30T01:20:03.369Z,79.34
2023-01-30T01:22:06.520Z,78.42
2023-01-30T01:24:13.164Z,78.69
2023-01-30T01:26:16.631Z,78.72
2023-01-30T01:28:22.601Z,78.85
2023-01-30T01:30:25.568Z,79.42
2023-01-30T01:32:28.457Z,79.87
2023-01-30T01:34:31.322Z,79.30
2023-01-30T01:36:53.846Z,80.62
2023-01-30T01:38:57.359Z,80.26
2023-01-30T01:41:03.098Z,80.66
2023-01-30T01:43:15.159Z,80.72
2023-01-30T01:45:23.134Z,81.07
2023-01-30T01:47:26.329Z,80.65
2023-01-30T01:49:32.323Z,81.73
2023-01-30T01:51:39.048Z,81.05
2023-01-30T01:53:47.310Z,81.11
2023-01-30T01:55:54.738Z,81.63
2023-01-30T01:58:03.381Z,81.70
2023-01-30T02:00:13.317Z,82.05
2023-01-30T02:02:18.814Z,83.07
2023-01-30T02:04:41.930Z,83.08
2023-01-30T02:06:44.937Z,82.36
2023-01-30T02:08:50.940Z,83.06
2023-01-30T02:10:59.390Z,82.91
2023-01-30T02:13:02.277Z,83.65
2023-01-30T02:15:06.518Z,82.65
2023-01-30T02:17:09.613Z,83.38
2023-01-30T02:19:26.268Z,83.62
2023-01-30T02:22:03.669Z,83.11
2023-01-30T02:24:35.478Z,83.23
2023-01-30T02:26:55.365Z,82.98
2023-01-30T02:29:27.521Z,83.72
2023-01-30T02:31:40.945Z,83.31
2023-01-30T02:33:57.761Z,83.42
2023-01-30T02:36:12.508Z,82.73
2023-01-30T02:38:28.859Z,82.42
2023-01-30T02:40:42.738Z,82.93
2023-01-30T02:42:52.699Z,81.64
2023-01-30T02:45:02.523Z,81.50
2023-01-30T02:47:11.679Z,81.87
2023-01-30T02:49:21.411Z,81.28
2023-01-30T02:51:29.815Z,81.21
2023-01-30T02:53:34.399Z,80.02
2023-01-30T02:55:41.519Z,80.71
2023-01-30T02:57:44.847Z,80.75
2023-01-30T02:59:52.239Z,81.33
2023-01-30T03:02:27.655Z,80.50
2023-01-30T03:04:45.213Z,81.45
2023-01-30T03:07:03.600Z,81.17
2023-01-30T03:09:17.057Z,80.93
2023-01-30T03:11:24.726Z,81.49
2023-01-30T03:13:37.908Z,80.77
2023-01-30T03:15:45.623Z,80.05
2023-01-30T03:17:50.279Z,80.53
2023-01-30T03:19:54.799Z,78.60
2023-01-30T03:21:57.780Z,78.19
2023-01-30T03:24:00.746Z,79.59
2023-01-30T03:26:06.285Z,80.13
2023-01-30T03:28:11.358Z,79.62
2023-01-30T03:30:15.070Z,79.81
2023-01-30T03:32:18.207Z,78.85
2023-01-30T03:34:22.718Z,79.37
2023-01-30T03:36:25.836Z,78.88
2023-01-30T03:38:29.601Z,78.43
2023-01-30T03:40:32.677Z,78.71
2023-01-30T03:42:35.779Z,78.33
2023-01-30T03:44:38.679Z,78.18
2023-01-30T03:46:41.858Z,77.56
2023-01-30T03:48:45.129Z,77.25
2023-01-30T03:50:50.719Z,78.06
2023-01-30T03:52:54.414Z,77.30
2023-01-30T03:54:58.717Z,78.25
2023-01-30T03:57:01.567Z,77.36
2023-01-30T03:59:05.024Z,78.16
2023-01-30T04:01:20.300Z,77.48
2023-01-30T04:03:23.914Z,76.70
2023-01-30T04:05:30.364Z,76.86
2023-01-30T04:07:40.779Z,76.64
2023-01-30T04:09:45.758Z,77.47
2023-01-30T04:11:49.729Z,75.52
2023-01-30T04:13:53.414Z,76.04
2023-01-30T04:16:16.638Z,74.40
2023-01-30T04:18:38.351Z,75.48
2023-01-30T04:20:54.279Z,76.02
2023-01-30T04:23:06.507Z,74.95
2023-01-30T04:25:10.317Z,75.04
2023-01-30T04:27:13.243Z,74.95
2023-01-30T04:29:30.579Z,75.75
2023-01-30T04:31:35.434Z,75.63
2023-01-30T04:33:45.279Z,75.33
2023-01-30T04:35:53.197Z,75.39
2023-01-30T04:37:56.519Z,75.97
2023-01-30T04:40:00.971Z,74.33
2023-01-30T04:42:04.297Z,74.51
2023-01-30T04:44:14.708Z,73.99
2023-01-30T04:46:28.410Z,75.35
2023-01-30T04:48:32.397Z,75.09
2023-01-30T04:50:37.454Z,73.80
2023-01-30T04:52:40.459Z,74.74
2023-01-30T04:54:44.217Z,74.90
2023-01-30T04:56:48.597Z,74.21
2023-01-30T04:58:51.644Z,73.63
2023-01-30T05:00:55.301Z,72.92
2023-01-30T05:02:58.437Z,74.25
2023-01-30T05:05:01.424Z,72.57
2023-01-30T05:07:04.398Z,73.45
2023-01-30T05:09:07.439Z,72.57
2023-01-30T05:11:10.599Z,73.30
2023-01-30T05:13:14.973Z,74.71
2023-01-30T05:15:18.405Z,73.91
2023-01-30T05:17:21.671Z,74.25
2023-01-30T05:19:24.697Z,73.96
2023-01-30T05:21:29.080Z,75.32
2023-01-30T05:23:32.038Z,74.09
2023-01-30T05:25:34.843Z,73.75
2023-01-30T05:27:37.923Z,74.32
2023-01-30T05:29:42.329Z,73.53
2023-01-30T05:31:45.274Z,74.06
2023-01-30T05:33:50.151Z,75.80
2023-01-30T05:35:53.010Z,74.30
2023-01-30T05:37:55.886Z,74.57
2023-01-30T05:39:58.859Z,74.83
2023-01-30T05:42:01.743Z,74.57
2023-01-30T05:44:05.082Z,74.06
2023-01-30T05:46:12.580Z,74.51
2023-01-30T05:48:15.506Z,74.45
2023-01-30T05:50:18.967Z,73.81
2023-01-30T05:52:22.332Z,73.27
2023-01-30T05:54:25.523Z,74.35
2023-01-30T05:56:28.678Z,74.20
2023-01-30T05:58:32.318Z,75.12
2023-01-30T06:00:35.278Z,73.74
2023-01-30T06:02:39.707Z,73.93
2023-01-30T06:04:42.760Z,74.06
2023-01-30T06:06:45.559Z,74.18
2023-01-30T06:08:49.021Z,73.37
2023-01-30T06:10:52.000Z,74.40
2023-01-30T06:12:55.018Z,74.25
2023-01-30T06:14:57.997Z,73.05
2023-01-30T06:17:01.063Z,73.56
2023-01-30T06:19:05.639Z,74.40
2023-01-30T06:21:09.199Z,73.11
2023-01-30T06:23:12.266Z,73.82
2023-01-30T06:25:15.552Z,74.79
2023-01-30T06:27:19.726Z,74.50
2023-01-30T06:29:22.716Z,74.66
2023-01-30T06:31:25.796Z,73.99
2023-01-30T06:33:28.998Z,73.49
2023-01-30T06:35:33.699Z,74.10
2023-01-30T06:37:36.717Z,74.59
2023-01-30T06:39:39.678Z,73.74
2023-01-30T06:41:42.642Z,74.14
2023-01-30T06:43:45.725Z,74.53
2023-01-30T06:45:48.823Z,73.31
2023-01-30T06:47:53.141Z,74.28
2023-01-30T06:49:56.089Z,72.74
2023-01-30T06:52:00.481Z,73.95
2023-01-30T06:54:03.379Z,73.33
2023-01-30T06:56:06.688Z,73.41
2023-01-30T06:58:10.922Z,73.41
2023-01-30T07:00:16.402Z,73.94
2023-01-30T07:02:18.928Z,73.20
2023-01-30T07:04:21.855Z,73.07
2023-01-30T07:06:27.036Z,74.24
2023-01-30T07:08:31.451Z,74.48
2023-01-30T07:10:35.801Z,74.74
2023-01-30T07:12:38.721Z,75.54
2023-01-30T07:14:41.660Z,73.90
2023-01-30T07:16:44.514Z,74.10
2023-01-30T07:18:47.460Z,73.70
2023-01-30T07:20:50.787Z,73.71
2023-01-30T07:22:55.088Z,74.41
2023-01-30T07:24:59.598Z,73.01
2023-01-30T07:27:02.656Z,72.61
2023-01-30T07:29:07.079Z,73.43
2023-01-30T07:31:10.609Z,72.78
2023-01-30T07:33:13.772Z,73.58
2023-01-30T07:35:17.039Z,72.32
2023-01-30T07:37:19.924Z,73.69
2023-01-30T07:39:22.879Z,73.47
2023-01-30T07:41:27.802Z,72.84
2023-01-30T07:43:30.839Z,73.43
2023-01-30T07:45:37.888Z,72.29
2023-01-30T07:47:40.969Z,72.62
2023-01-30T07:49:43.849Z,72.80
2023-01-30T07:51:46.758Z,72.48
2023-01-30T07:53:51.446Z,71.96
2023-01-30T07:55:54.558Z,71.00
2023-01-30T07:57:59.040Z,71.37
2023-01-30T08:00:02.479Z,71.21
2023-01-30T08:02:12.072Z,70.79
2023-01-30T08:04:15.175Z,71.14
2023-01-30T08:06:18.483Z,69.60
2023-01-30T08:08:21.540Z,71.11
2023-01-30T08:10:24.761Z,71.40
2023-01-30T08:12:28.050Z,70.76
2023-01-30T08:14:32.277Z,70.87
2023-01-30T08:16:35.177Z,72.08
2023-01-30T08:18:38.057Z,71.84
2023-01-30T08:20:43.027Z,70.68
2023-01-30T08:22:45.999Z,70.84
2023-01-30T08:24:48.947Z,70.76
2023-01-30T08:26:51.997Z,70.63
2023-01-30T08:28:56.276Z,71.16
2023-01-30T08:31:00.821Z,70.75
2023-01-30T08:33:03.796Z,71.60
2023-01-30T08:35:07.658Z,71.69
2023-01-30T08:37:10.510Z,71.32
2023-01-30T08:39:14.299Z,71.87
2023-01-30T08:41:17.247Z,71.46
2023-01-30T08:43:20.066Z,71.41
2023-01-30T08:45:23.038Z,71.27
2023-01-30T08:47:27.445Z,72.46
2023-01-30T08:49:30.417Z,73.54
2023-01-30T08:51:33.539Z,72.40
2023-01-30T08:53:36.590Z,72.83
2023-01-30T08:55:39.805Z,72.78
2023-01-30T08:57:42.745Z,74.18
2023-01-30T08:59:46.230Z,73.13
2023-01-30T09:01:49.467Z,73.97
2023-01-30T09:03:53.802Z,73.60
2023-01-30T09:05:56.955Z,74.55
2023-01-30T09:08:00.035Z,74.54
2023-01-30T09:10:02.938Z,75.01
2023-01-30T09:12:06.298Z,76.57
2023-01-30T09:14:09.311Z,77.16
2023-01-30T09:16:12.748Z,76.96
2023-01-30T09:18:15.823Z,78.22
2023-01-30T09:20:21.062Z,77.95
2023-01-30T09:22:24.194Z,77.52
2023-01-30T09:24:28.086Z,77.77
2023-01-30T09:26:31.162Z,78.31
2023-01-30T09:28:34.661Z,78.56
2023-01-30T09:30:37.745Z,78.56
2023-01-30T09:32:40.741Z,78.43
2023-01-30T09:34:43.759Z,78.97
2023-01-30T09:36:48.333Z,79.95
2023-01-30T09:38:51.419Z,80.46
2023-01-30T09:41:12.639Z,80.67
2023-01-30T09:43:30.442Z,80.73
2023-01-30T09:45:45.379Z,81.03
2023-01-30T09:47:56.479Z,81.68
2023-01-30T09:50:08.829Z,80.83
2023-01-30T09:52:25.219Z,80.25
2023-01-30T09:54:29.839Z,81.32
2023-01-30T09:56:32.841Z,79.93
2023-01-30T09:58:46.127Z,80.64
2023-01-30T10:00:52.161Z,80.88
2023-01-30T10:03:05.230Z,80.68
2023-01-30T10:05:08.729Z,80.94
2023-01-30T10:07:27.451Z,80.26
2023-01-30T10:09:41.997Z,79.35
2023-01-30T10:11:56.983Z,79.09
2023-01-30T10:14:38.331Z,78.67
2023-01-30T10:16:54.641Z,76.96
2023-01-30T10:19:35.343Z,77.69
2023-01-30T10:21:48.317Z,78.66
2023-01-30T10:24:08.158Z,77.33
2023-01-30T10:26:14.879Z,75.66
2023-01-30T10:28:23.301Z,77.05
2023-01-30T10:30:26.699Z,76.31
2023-01-30T10:32:32.708Z,75.61
2023-01-30T10:34:39.342Z,76.28
2023-01-30T10:36:47.919Z,75.88
2023-01-30T10:38:53.120Z,76.37
2023-01-30T10:41:01.706Z,75.80
2023-01-30T10:43:14.303Z,76.33
2023-01-30T10:45:20.837Z,78.25
2023-01-30T10:47:46.558Z,77.48
2023-01-30T10:49:53.276Z,78.40
2023-01-30T10:52:03.357Z,78.92
2023-01-30T10:54:14.120Z,79.19
2023-01-30T10:56:27.048Z,79.69
2023-01-30T10:58:36.367Z,80.10
2023-01-30T11:00:43.239Z,80.25
2023-01-30T11:02:58.816Z,79.91
2023-01-30T11:05:05.510Z,79.64
2023-01-30T11:07:08.757Z,80.10
2023-01-30T11:09:11.775Z,80.98
2023-01-30T11:11:27.091Z,81.13
2023-01-30T11:13:31.985Z,82.45
2023-01-30T11:15:40.607Z,82.51
2023-01-30T11:17:45.677Z,82.70
2023-01-30T11:19:56.971Z,82.50
2023-01-30T11:22:03.356Z,82.89
2023-01-30T11:24:17.387Z,82.52
2023-01-30T11:26:29.466Z,82.38
2023-01-30T11:28:42.639Z,82.47
2023-01-30T11:30:53.165Z,82.61
2023-01-30T11:33:11.334Z,83.65
2023-01-30T11:35:29.842Z,83.44
2023-01-30T11:37:34.279Z,83.38
2023-01-30T11:39:37.300Z,84.26
2023-01-30T11:41:44.750Z,84.23
2023-01-30T11:43:48.820Z,83.96
2023-01-30T11:45:51.885Z,85.41
2023-01-30T11:47:59.199Z,85.44
2023-01-30T11:51:31.963Z,85.84
2023-01-30T11:52:30.800Z,86.13
2023-01-30T11:54:38.336Z,85.72
2023-01-30T11:56:49.760Z,85.46
2023-01-30T11:59:00.517Z,86.25
2023-01-30T12:01:05.529Z,86.81
2023-01-30T12:03:13.220Z,87.07
2023-01-30T12:05:26.246Z,87.30
2023-01-30T12:07:32.231Z,87.78
2023-01-30T12:09:40.083Z,87.65
2023-01-30T12:11:45.559Z,88.42
2023-01-30T12:13:51.016Z,87.97
2023-01-30T12:16:04.784Z,87.76
2023-01-30T12:18:14.728Z,87.38
2023-01-30T12:20:26.519Z,87.28
2023-01-30T12:22:36.649Z,87.42
2023-01-30T12:24:45.150Z,86.67
2023-01-30T12:26:55.572Z,87.37
2023-01-30T12:29:06.907Z,86.79
2023-01-30T12:31:18.802Z,87.24
2023-01-30T12:33:22.324Z,87.39
2023-01-30T12:35:35.639Z,87.83
2023-01-30T12:37:52.098Z,88.05
2023-01-30T12:40:03.960Z,87.35
2023-01-30T12:42:27.268Z,86.81
2023-01-30T12:44:54.315Z,86.80
2023-01-30T12:47:17.758Z,86.26
2023-01-30T12:49:54.815Z,86.78
2023-01-30T12:52:11.702Z,86.72
2023-01-30T12:54:26.407Z,85.31
2023-01-30T12:56:46.363Z,85.40
2023-01-30T12:58:59.242Z,85.73
2023-01-30T13:01:16.565Z,84.55
2023-01-30T13:03:35.168Z,84.87
2023-01-30T13:05:45.181Z,84.32
2023-01-30T13:08:00.803Z,83.14
2023-01-30T13:10:14.658Z,83.60
2023-01-30T13:12:28.119Z,83.07
2023-01-30T13:14:41.462Z,83.15
2023-01-30T13:16:55.928Z,83.49
2023-01-30T13:19:06.244Z,82.86
2023-01-30T13:21:16.232Z,82.42
2023-01-30T13:23:23.360Z,82.62
2023-01-30T13:25:32.837Z,83.53
2023-01-30T13:27:40.937Z,82.07
2023-01-30T13:29:47.660Z,82.61
2023-01-30T13:31:54.781Z,81.67
2023-01-30T13:34:05.902Z,82.38
2023-01-30T13:36:14.827Z,81.77
2023-01-30T13:38:22.359Z,82.16
2023-01-30T13:40:29.096Z,81.95
2023-01-30T13:42:39.238Z,82.20
2023-01-30T13:44:45.812Z,81.64
2023-01-30T13:46:50.191Z,80.61
2023-01-30T13:49:05.839Z,80.38
2023-01-30T13:51:23.596Z,81.30
2023-01-30T13:53:35.008Z,80.13
2023-01-30T13:55:47.666Z,81.03
2023-01-30T13:57:56.958Z,80.61
2023-01-30T14:00:22.804Z,80.86
2023-01-30T14:02:26.475Z,81.46
2023-01-30T14:04:52.808Z,81.38
2023-01-30T14:07:09.478Z,80.91
2023-01-30T14:09:25.847Z,82.14
2023-01-30T14:11:38.603Z,82.14
2023-01-30T14:13:54.547Z,81.49
2023-01-30T14:16:01.450Z,81.20
2023-01-30T14:18:07.882Z,81.58
2023-01-30T14:20:17.558Z,80.78
2023-01-30T14:22:28.238Z,80.58
2023-01-30T14:24:32.100Z,80.27
2023-01-30T14:27:00.892Z,80.77
2023-01-30T14:29:04.197Z,80.51
2023-01-30T14:31:08.893Z,79.99
2023-01-30T14:33:34.370Z,80.26
2023-01-30T14:35:37.217Z,79.46
2023-01-30T14:37:48.807Z,78.14
2023-01-30T14:39:54.126Z,77.65
2023-01-30T14:42:12.288Z,76.79
2023-01-30T14:44:47.918Z,78.04
2023-01-30T14:46:56.945Z,76.57
2023-01-30T14:49:05.589Z,76.44
2023-01-30T14:51:29.312Z,77.20
2023-01-30T14:53:32.253Z,77.21
2023-01-30T14:55:35.428Z,77.97
2023-01-30T14:57:39.858Z,76.38
2023-01-30T15:00:03.273Z,75.90
2023-01-30T15:02:26.807Z,76.28
2023-01-30T15:04:33.328Z,76.03
2023-01-30T15:06:36.803Z,76.62
2023-01-30T15:08:43.820Z,75.04
2023-01-30T15:11:09.967Z,75.79
2023-01-30T15:13:39.236Z,75.00
2023-01-30T15:15:51.199Z,75.67
2023-01-30T15:18:22.517Z,75.23
2023-01-30T15:20:42.677Z,74.48
2023-01-30T15:23:07.797Z,75.86
2023-01-30T15:25:31.156Z,74.58
2023-01-30T15:27:42.313Z,75.42
2023-01-30T15:30:19.078Z,75.95
2023-01-30T15:32:24.098Z,75.28
2023-01-30T15:34:31.491Z,75.52
2023-01-30T15:36:39.154Z,76.43
2023-01-30T15:38:42.038Z,74.78
2023-01-30T15:40:45.117Z,74.38
2023-01-30T15:42:49.770Z,75.11
2023-01-30T15:45:00.885Z,75.05
2023-01-30T15:47:38.718Z,75.70
2023-01-30T15:49:54.679Z,75.56
2023-01-30T15:52:01.612Z,74.60
2023-01-30T15:54:11.522Z,73.77
2023-01-30T15:56:20.087Z,73.70
2023-01-30T15:58:23.971Z,73.59
2023-01-30T16:00:29.695Z,74.53
2023-01-30T16:02:34.494Z,75.14
2023-01-30T16:04:37.557Z,75.60
2023-01-30T16:06:42.034Z,74.63
2023-01-30T16:08:56.548Z,74.69
2023-01-30T16:11:01.036Z,75.13
2023-01-30T16:13:04.501Z,75.63
2023-01-30T16:15:19.640Z,75.44
2023-01-30T16:17:33.023Z,75.77
2023-01-30T16:19:38.489Z,76.50
2023-01-30T16:21:46.918Z,76.30
2023-01-30T16:23:56.153Z,76.05
2023-01-30T16:26:00.188Z,76.24
2023-01-30T16:28:04.491Z,77.67
2023-01-30T16:30:09.640Z,76.91
2023-01-30T16:32:14.277Z,77.31
2023-01-30T16:34:28.707Z,77.06
2023-01-30T16:36:38.840Z,76.88
2023-01-30T16:38:45.775Z,76.16
2023-01-30T16:40:48.721Z,76.82
2023-01-30T16:42:59.529Z,76.95
2023-01-30T16:45:47.968Z,77.58
2023-01-30T16:47:51.093Z,77.63
2023-01-30T16:49:56.328Z,77.32
2023-01-30T16:52:03.220Z,76.97
2023-01-30T16:54:19.207Z,78.16
2023-01-30T16:56:22.328Z,78.45
2023-01-30T16:58:32.573Z,77.48
2023-01-30T17:00:38.676Z,77.74
2023-01-30T17:02:43.278Z,78.43
2023-01-30T17:04:46.399Z,79.12
2023-01-30T17:06:57.999Z,78.73
2023-01-30T17:09:02.634Z,79.19
2023-01-30T17:11:07.417Z,79.01
2023-01-30T17:13:30.878Z,77.72
2023-01-30T17:15:35.907Z,78.89
2023-01-30T17:17:38.858Z,77.86
2023-01-30T17:19:42.028Z,77.97
2023-01-30T17:21:48.452Z,78.75
2023-01-30T17:23:55.300Z,78.53
2023-01-30T17:25:58.549Z,78.46
2023-01-30T17:28:03.243Z,78.18
2023-01-30T17:30:14.581Z,78.14
2023-01-30T17:32:17.638Z,77.80
2023-01-30T17:34:22.977Z,78.95
2023-01-30T17:36:27.845Z,78.09
2023-01-30T17:38:30.804Z,77.64
2023-01-30T17:40:35.905Z,78.20
2023-01-30T17:42:38.877Z,77.89
2023-01-30T17:44:43.312Z,77.19
2023-01-30T17:46:48.568Z,77.23
2023-01-30T17:48:52.058Z,76.94
2023-01-30T17:50:55.090Z,78.22
2023-01-30T17:52:58.209Z,77.93
2023-01-30T17:55:01.158Z,78.02
2023-01-30T17:57:06.404Z,77.39
2023-01-30T17:59:16.600Z,77.29
2023-01-30T18:01:21.106Z,77.69
2023-01-30T18:03:25.650Z,77.85
2023-01-30T18:05:28.650Z,78.91
2023-01-30T18:07:31.798Z,78.03
2023-01-30T18:09:34.680Z,78.00
2023-01-30T18:11:37.643Z,78.56
2023-01-30T18:13:41.026Z,78.64
2023-01-30T18:15:43.997Z,77.11
2023-01-30T18:17:50.157Z,78.74
2023-01-30T18:19:54.634Z,78.65
2023-01-30T18:21:58.681Z,77.96
2023-01-30T18:24:01.795Z,78.78
2023-01-30T18:26:04.799Z,77.87
2023-01-30T18:28:10.719Z,77.40
2023-01-30T18:30:17.405Z,77.21
2023-01-30T18:32:20.825Z,78.75
2023-01-30T18:34:25.237Z,77.16
2023-01-30T18:36:28.365Z,78.07
2023-01-30T18:38:31.303Z,77.72
2023-01-30T18:40:34.277Z,77.70
2023-01-30T18:42:37.190Z,77.02
2023-01-30T18:44:40.128Z,78.25
2023-01-30T18:46:43.052Z,78.01
2023-01-30T18:48:47.267Z,77.98
2023-01-30T18:50:51.641Z,77.80
2023-01-30T18:52:54.597Z,77.59
2023-01-30T18:54:57.680Z,78.05
2023-01-30T18:57:00.648Z,78.12
2023-01-30T18:59:05.575Z,77.49
2023-01-30T19:01:14.472Z,76.70
2023-01-30T19:03:17.456Z,77.36
2023-01-30T19:05:20.770Z,76.72
2023-01-30T19:07:25.075Z,77.70
2023-01-30T19:09:28.164Z,76.23
2023-01-30T19:11:49.675Z,77.04
2023-01-30T19:13:53.845Z,76.72
2023-01-30T19:15:58.920Z,78.23
2023-01-30T19:18:01.707Z,77.01
2023-01-30T19:20:08.905Z,77.42
2023-01-30T19:22:11.771Z,77.58
2023-01-30T19:24:17.034Z,76.50
2023-01-30T19:26:21.558Z,77.84
2023-01-30T19:28:24.505Z,78.76
2023-01-30T19:30:27.646Z,78.94
2023-01-30T19:32:30.677Z,77.23
2023-01-30T19:34:33.460Z,78.55
2023-01-30T19:36:36.973Z,79.37
2023-01-30T19:38:40.133Z,80.15
2023-01-30T19:40:45.876Z,80.10
2023-01-30T19:42:49.887Z,79.80
2023-01-30T19:44:53.527Z,80.16
2023-01-30T19:46:56.527Z,80.71
2023-01-30T19:48:59.672Z,82.16
2023-01-30T19:51:13.673Z,81.46
2023-01-30T19:53:16.993Z,82.96
2023-01-30T19:55:20.974Z,83.50
2023-01-30T19:57:25.652Z,83.64
2023-01-30T19:59:30.427Z,83.59
2023-01-30T20:01:37.297Z,84.22
2023-01-30T20:03:42.032Z,84.04
2023-01-30T20:05:45.613Z,86.36
2023-01-30T20:07:50.512Z,85.70
2023-01-30T20:09:54.501Z,86.80
2023-01-30T20:11:57.823Z,86.60
2023-01-30T20:14:02.523Z,86.81
2023-01-30T20:16:06.727Z,86.69
2023-01-30T20:18:10.014Z,87.55
2023-01-30T20:20:13.447Z,87.01
2023-01-30T20:22:16.438Z,86.38
2023-01-30T20:24:19.894Z,87.99
2023-01-30T20:26:24.687Z,87.25
2023-01-30T20:28:28.742Z,87.25
2023-01-30T20:30:33.547Z,87.85
2023-01-30T20:32:37.037Z,87.72
2023-01-30T20:34:40.353Z,87.16
2023-01-30T20:36:43.337Z,87.53
2023-01-30T20:38:47.757Z,86.65
2023-01-30T20:40:50.669Z,86.69
2023-01-30T20:42:53.758Z,86.36
2023-01-30T20:44:56.858Z,87.82
2023-01-30T20:47:01.748Z,86.57
2023-01-30T20:49:04.790Z,88.25
2023-01-30T20:51:08.937Z,87.97
2023-01-30T20:53:12.369Z,87.38
2023-01-30T20:55:15.400Z,86.67
2023-01-30T20:57:18.389Z,87.31
2023-01-30T20:59:27.544Z,86.69
2023-01-30T21:01:30.980Z,87.12
2023-01-30T21:03:35.627Z,86.40
2023-01-30T21:05:38.751Z,86.94
2023-01-30T21:07:41.831Z,85.07
2023-01-30T21:09:44.870Z,85.04
2023-01-30T21:11:49.380Z,85.85
2023-01-30T21:13:52.349Z,85.74
2023-01-30T21:16:02.271Z,86.41
2023-01-30T21:18:05.702Z,84.60
2023-01-30T21:20:11.460Z,85.99
2023-01-30T21:22:15.340Z,84.84
2023-01-30T21:24:20.208Z,84.85
2023-01-30T21:26:27.496Z,84.95
2023-01-30T21:28:32.306Z,86.33
2023-01-30T21:30:36.988Z,84.79
2023-01-30T21:32:40.673Z,85.88
2023-01-30T21:34:44.365Z,85.90
2023-01-30T21:37:08.981Z,85.38
2023-01-30T21:39:32.744Z,86.41
2023-01-30T21:41:56.347Z,86.58
2023-01-30T21:44:00.134Z,87.32
2023-01-30T21:46:03.429Z,85.89
2023-01-30T21:48:07.447Z,86.03
2023-01-30T21:50:11.300Z,86.14
2023-01-30T21:52:16.092Z,87.81
2023-01-30T21:54:19.881Z,87.42
2023-01-30T21:56:23.307Z,87.41
2023-01-30T21:58:26.340Z,87.46
2023-01-30T22:00:29.309Z,88.72
2023-01-30T22:02:32.217Z,89.13
2023-01-30T22:04:36.648Z,88.62
2023-01-30T22:06:40.201Z,89.64
2023-01-30T22:08:44.760Z,88.17
2023-01-30T22:10:47.551Z,89.63
2023-01-30T22:12:50.576Z,89.69
2023-01-30T22:14:53.930Z,89.20
2023-01-30T22:16:57.487Z,89.73
2023-01-30T22:19:02.615Z,90.80
2023-01-30T22:21:11.243Z,91.18
2023-01-30T22:23:14.099Z,91.37
2023-01-30T22:25:18.823Z,91.56
2023-01-30T22:27:21.804Z,91.58
2023-01-30T22:29:25.254Z,91.31
2023-01-30T22:31:34.922Z,91.14
2023-01-30T22:33:38.484Z,91.02
2023-01-30T22:35:48.549Z,90.23
2023-01-30T22:37:51.889Z,91.05
2023-01-30T22:39:54.941Z,91.91
2023-01-30T22:41:59.338Z,91.72
2023-01-30T22:44:04.513Z,90.37
2023-01-30T22:46:09.399Z,91.09
2023-01-30T22:48:12.238Z,91.77
2023-01-30T22:50:15.238Z,91.23
2023-01-30T22:52:18.199Z,91.25
2023-01-30T22:54:21.557Z,91.61
2023-01-30T22:56:29.698Z,92.39
2023-01-30T22:58:34.979Z,91.68
2023-01-30T23:00:38.145Z,91.21
2023-01-30T23:02:41.359Z,91.52
2023-01-30T23:04:44.420Z,92.69
2023-01-30T23:06:48.707Z,91.63
2023-01-30T23:08:53.800Z,91.63
2023-01-30T23:10:56.787Z,92.50
2023-01-30T23:13:08.560Z,92.52
2023-01-30T23:15:13.317Z,92.65
2023-01-30T23:17:34.861Z,92.00
2023-01-30T23:19:37.923Z,92.81
2023-01-30T23:21:42.359Z,91.46
2023-01-30T23:23:46.124Z,92.95
2023-01-30T23:25:49.083Z,92.78
2023-01-30T23:27:51.980Z,91.94
2023-01-30T23:29:54.916Z,91.77
2023-01-30T23:31:59.302Z,91.80
2023-01-30T23:34:05.048Z,92.46
2023-01-30T23:36:11.199Z,92.33
2023-01-30T23:38:19.352Z,93.02
2023-01-30T23:40:22.638Z,92.35
2023-01-30T23:42:25.457Z,92.37
2023-01-30T23:44:28.447Z,92.20
2023-01-30T23:46:33.759Z,91.64
2023-01-30T23:48:38.593Z,92.05
2023-01-30T23:50:42.507Z,91.33
2023-01-30T23:52:45.558Z,91.72
2023-01-30T23:54:48.679Z,91.85
2023-01-30T23:56:51.558Z,90.87
2023-01-30T23:58:54.773Z,89.26
